KLM121 EFHK-LHBP
Flight info
| Callsign | KLM121 |
|---|---|
| Flight time | 2h 10m |
| Altitude | 38000 |
| Route | KOIVU DCT LARTI DCT NAVOT DCT LUTAL P870 BERIL/N0451F370 DCT SUWGI/N0447F380 DCT LOGDA DCT POBOK M985 NAXAR/N0446F390 DCT SUPAK DCT EDEMU |
| Aircraft | B738/M-SDE2E3FGHIRWXY/LB1 |
Departure
| Time | 2026-05-05 05:44 |
|---|---|
| Airport | Helsinki Vantaa Airport (EFHK) |
Arrival
| Time | 2026-05-05 07:54 |
|---|---|
| Airport | Budapest Liszt Ferenc International Airport (LHBP) |
| Time | Latitude | Longitude | Altitude | Speed | Heading |
|---|---|---|---|---|---|
| 2026-05-05 04:59 | 60.31711 | 24.97161 | 171 ft | 0 kts | 243° |
| 2026-05-05 05:31 | 60.31720 | 24.97202 | 171 ft | 4 kts | 250° |
| 2026-05-05 05:32 | 60.31726 | 24.97253 | 171 ft | 4 kts | 272° |
| 2026-05-05 05:32 | 60.31720 | 24.97299 | 171 ft | 4 kts | 323° |
| 2026-05-05 05:32 | 60.31715 | 24.97306 | 171 ft | 1 kts | 333° |
| 2026-05-05 05:35 | 60.31716 | 24.97305 | 171 ft | 1 kts | 333° |
| 2026-05-05 05:36 | 60.31730 | 24.97290 | 171 ft | 4 kts | 332° |
| 2026-05-05 05:36 | 60.31776 | 24.97243 | 171 ft | 10 kts | 332° |
| 2026-05-05 05:36 | 60.31844 | 24.97172 | 171 ft | 11 kts | 333° |
| 2026-05-05 05:36 | 60.31912 | 24.97102 | 171 ft | 11 kts | 333° |
| 2026-05-05 05:37 | 60.31957 | 24.97057 | 170 ft | 11 kts | 333° |
| 2026-05-05 05:37 | 60.32021 | 24.96990 | 170 ft | 10 kts | 333° |
| 2026-05-05 05:37 | 60.32083 | 24.96919 | 170 ft | 10 kts | 329° |
| 2026-05-05 05:37 | 60.32144 | 24.96849 | 170 ft | 10 kts | 330° |
| 2026-05-05 05:38 | 60.32213 | 24.96770 | 170 ft | 12 kts | 330° |
| 2026-05-05 05:38 | 60.32292 | 24.96679 | 170 ft | 13 kts | 330° |
| 2026-05-05 05:38 | 60.32370 | 24.96587 | 170 ft | 14 kts | 330° |
| 2026-05-05 05:38 | 60.32469 | 24.96472 | 170 ft | 20 kts | 330° |
| 2026-05-05 05:39 | 60.32608 | 24.96312 | 170 ft | 25 kts | 330° |
| 2026-05-05 05:39 | 60.32763 | 24.96131 | 170 ft | 26 kts | 330° |
| 2026-05-05 05:39 | 60.32915 | 24.95953 | 170 ft | 24 kts | 330° |
| 2026-05-05 05:39 | 60.33057 | 24.95787 | 169 ft | 23 kts | 329° |
| 2026-05-05 05:40 | 60.33176 | 24.95580 | 169 ft | 22 kts | 317° |
| 2026-05-05 05:40 | 60.33176 | 24.95318 | 169 ft | 22 kts | 226° |
| 2026-05-05 05:40 | 60.33110 | 24.95061 | 169 ft | 21 kts | 268° |
| 2026-05-05 05:40 | 60.33115 | 24.94774 | 169 ft | 18 kts | 272° |
| 2026-05-05 05:41 | 60.33117 | 24.94715 | 169 ft | 0 kts | 272° |
| 2026-05-05 05:42 | 60.33117 | 24.94682 | 169 ft | 8 kts | 272° |
| 2026-05-05 05:43 | 60.33121 | 24.94518 | 169 ft | 13 kts | 272° |
| 2026-05-05 05:43 | 60.33082 | 24.94320 | 169 ft | 20 kts | 227° |
| 2026-05-05 05:43 | 60.32961 | 24.94051 | 169 ft | 45 kts | 227° |
| 2026-05-05 05:43 | 60.32582 | 24.93219 | 169 ft | 113 kts | 227° |
| 2026-05-05 05:44 | 60.31929 | 24.91758 | 226 ft | 163 kts | 225° |
| 2026-05-05 05:44 | 60.31149 | 24.90043 | 1043 ft | 155 kts | 228° |
| 2026-05-05 05:44 | 60.30461 | 24.88609 | 2287 ft | 138 kts | 232° |
| 2026-05-05 05:44 | 60.29899 | 24.86941 | 2769 ft | 158 kts | 251° |
| 2026-05-05 05:45 | 60.29745 | 24.84572 | 3033 ft | 185 kts | 271° |
| 2026-05-05 05:45 | 60.30030 | 24.81829 | 3262 ft | 214 kts | 278° |
| 2026-05-05 05:45 | 60.30283 | 24.78761 | 3761 ft | 225 kts | 264° |
| 2026-05-05 05:45 | 60.29999 | 24.75685 | 4621 ft | 224 kts | 251° |
| 2026-05-05 05:46 | 60.29434 | 24.72759 | 5486 ft | 224 kts | 247° |
| 2026-05-05 05:46 | 60.28821 | 24.69848 | 6306 ft | 227 kts | 247° |
| 2026-05-05 05:46 | 60.28203 | 24.66920 | 7158 ft | 226 kts | 247° |
| 2026-05-05 05:46 | 60.27594 | 24.64004 | 8012 ft | 226 kts | 248° |
| 2026-05-05 05:47 | 60.26985 | 24.61064 | 8826 ft | 228 kts | 248° |
| 2026-05-05 05:47 | 60.26381 | 24.58124 | 9683 ft | 227 kts | 248° |
| 2026-05-05 05:47 | 60.25781 | 24.55202 | 10376 ft | 230 kts | 249° |
| 2026-05-05 05:47 | 60.25164 | 24.52204 | 11077 ft | 233 kts | 248° |
| 2026-05-05 05:48 | 60.24219 | 24.49497 | 11737 ft | 245 kts | 229° |
| 2026-05-05 05:48 | 60.22807 | 24.47333 | 12048 ft | 274 kts | 215° |
| 2026-05-05 05:48 | 60.20922 | 24.45910 | 12250 ft | 302 kts | 207° |
| 2026-05-05 05:48 | 60.18855 | 24.44546 | 12433 ft | 323 kts | 206° |
| 2026-05-05 05:49 | 60.16682 | 24.43104 | 12871 ft | 333 kts | 206° |
| 2026-05-05 05:49 | 60.14466 | 24.41617 | 13519 ft | 338 kts | 207° |
| 2026-05-05 05:49 | 60.12139 | 24.40527 | 14190 ft | 355 kts | 192° |
| 2026-05-05 05:49 | 60.09625 | 24.40988 | 14919 ft | 374 kts | 175° |
| 2026-05-05 05:50 | 60.07161 | 24.43006 | 15647 ft | 389 kts | 162° |
| 2026-05-05 05:50 | 60.04741 | 24.45517 | 16303 ft | 394 kts | 161° |
| 2026-05-05 05:50 | 60.02308 | 24.48111 | 16931 ft | 398 kts | 161° |
| 2026-05-05 05:50 | 59.99851 | 24.50720 | 17603 ft | 401 kts | 161° |
| 2026-05-05 05:51 | 59.97373 | 24.53315 | 18208 ft | 404 kts | 162° |
| 2026-05-05 05:51 | 59.94867 | 24.55906 | 18707 ft | 407 kts | 161° |
| 2026-05-05 05:51 | 59.92335 | 24.58504 | 19243 ft | 410 kts | 162° |
| 2026-05-05 05:51 | 59.89784 | 24.61110 | 19736 ft | 414 kts | 161° |
| 2026-05-05 05:52 | 59.87213 | 24.63722 | 20268 ft | 415 kts | 163° |
| 2026-05-05 05:52 | 59.84523 | 24.65433 | 20759 ft | 398 kts | 182° |
| 2026-05-05 05:52 | 59.81816 | 24.65356 | 21316 ft | 384 kts | 197° |
| 2026-05-05 05:52 | 59.79222 | 24.64262 | 21850 ft | 381 kts | 201° |
| 2026-05-05 05:53 | 59.76676 | 24.62986 | 22319 ft | 384 kts | 202° |
| 2026-05-05 05:53 | 59.74074 | 24.61676 | 22792 ft | 387 kts | 201° |
| 2026-05-05 05:53 | 59.71447 | 24.60407 | 23278 ft | 391 kts | 201° |
| 2026-05-05 05:53 | 59.68756 | 24.59147 | 23688 ft | 393 kts | 200° |
| 2026-05-05 05:54 | 59.66120 | 24.57925 | 24083 ft | 395 kts | 201° |
| 2026-05-05 05:54 | 59.63418 | 24.56572 | 24480 ft | 396 kts | 202° |
| 2026-05-05 05:54 | 59.60783 | 24.55183 | 24839 ft | 398 kts | 202° |
| 2026-05-05 05:54 | 59.58097 | 24.53749 | 25134 ft | 402 kts | 202° |
| 2026-05-05 05:55 | 59.55385 | 24.52312 | 25485 ft | 405 kts | 202° |
| 2026-05-05 05:55 | 59.52659 | 24.50881 | 25871 ft | 406 kts | 202° |
| 2026-05-05 05:55 | 59.49919 | 24.49454 | 26237 ft | 408 kts | 202° |
| 2026-05-05 05:55 | 59.47163 | 24.48026 | 26575 ft | 411 kts | 202° |
| 2026-05-05 05:56 | 59.44391 | 24.46593 | 26912 ft | 413 kts | 202° |
| 2026-05-05 05:56 | 59.41606 | 24.45157 | 27227 ft | 415 kts | 202° |
| 2026-05-05 05:56 | 59.38804 | 24.43713 | 27562 ft | 417 kts | 202° |
| 2026-05-05 05:56 | 59.35989 | 24.42266 | 27871 ft | 419 kts | 202° |
| 2026-05-05 05:57 | 59.33141 | 24.40904 | 28180 ft | 424 kts | 199° |
| 2026-05-05 05:57 | 59.30232 | 24.39798 | 28473 ft | 428 kts | 198° |
| 2026-05-05 05:57 | 59.27297 | 24.38757 | 28774 ft | 430 kts | 198° |
| 2026-05-05 05:57 | 59.24342 | 24.37733 | 29070 ft | 432 kts | 198° |
| 2026-05-05 05:58 | 59.21387 | 24.36712 | 29466 ft | 431 kts | 198° |
| 2026-05-05 05:58 | 59.18442 | 24.35689 | 29909 ft | 429 kts | 198° |
| 2026-05-05 05:58 | 59.15514 | 24.34665 | 30301 ft | 427 kts | 198° |
| 2026-05-05 05:58 | 59.12596 | 24.33636 | 30630 ft | 426 kts | 198° |
| 2026-05-05 05:59 | 59.09677 | 24.32602 | 30955 ft | 426 kts | 198° |
| 2026-05-05 05:59 | 59.06764 | 24.31568 | 31252 ft | 426 kts | 198° |
| 2026-05-05 05:59 | 59.03844 | 24.30529 | 31440 ft | 428 kts | 197° |
| 2026-05-05 05:59 | 59.00897 | 24.29483 | 31609 ft | 432 kts | 197° |
| 2026-05-05 06:00 | 58.97944 | 24.28439 | 31936 ft | 431 kts | 197° |
| 2026-05-05 06:00 | 58.95003 | 24.27405 | 32383 ft | 428 kts | 197° |
| 2026-05-05 06:00 | 58.92083 | 24.26382 | 32768 ft | 426 kts | 197° |
| 2026-05-05 06:00 | 58.89167 | 24.25359 | 33065 ft | 426 kts | 197° |
| 2026-05-05 06:01 | 58.86247 | 24.24334 | 33354 ft | 427 kts | 197° |
| 2026-05-05 06:01 | 58.83326 | 24.23311 | 33677 ft | 426 kts | 197° |
| 2026-05-05 06:01 | 58.80413 | 24.22293 | 33984 ft | 425 kts | 197° |
| 2026-05-05 06:01 | 58.77506 | 24.21279 | 34216 ft | 425 kts | 197° |
| 2026-05-05 06:02 | 58.74589 | 24.20262 | 34380 ft | 427 kts | 196° |
| 2026-05-05 06:02 | 58.71660 | 24.19241 | 34522 ft | 429 kts | 196° |
| 2026-05-05 06:02 | 58.68722 | 24.18220 | 34772 ft | 429 kts | 196° |
| 2026-05-05 06:02 | 58.65789 | 24.17205 | 35046 ft | 428 kts | 196° |
| 2026-05-05 06:03 | 58.62861 | 24.16194 | 35276 ft | 428 kts | 196° |
| 2026-05-05 06:03 | 58.59965 | 24.15194 | 35474 ft | 429 kts | 196° |
| 2026-05-05 06:03 | 58.57030 | 24.14182 | 35694 ft | 429 kts | 196° |
| 2026-05-05 06:03 | 58.54094 | 24.13172 | 35925 ft | 429 kts | 196° |
| 2026-05-05 06:04 | 58.51159 | 24.12164 | 36153 ft | 429 kts | 196° |
| 2026-05-05 06:04 | 58.48220 | 24.11156 | 36344 ft | 429 kts | 196° |
| 2026-05-05 06:04 | 58.45278 | 24.10149 | 36513 ft | 430 kts | 195° |
| 2026-05-05 06:04 | 58.42331 | 24.09141 | 36669 ft | 431 kts | 195° |
| 2026-05-05 06:05 | 58.39377 | 24.08133 | 36886 ft | 431 kts | 195° |
| 2026-05-05 06:05 | 58.36427 | 24.07128 | 37112 ft | 431 kts | 195° |
| 2026-05-05 06:05 | 58.33478 | 24.06126 | 37315 ft | 431 kts | 195° |
| 2026-05-05 06:05 | 58.30526 | 24.05124 | 37488 ft | 431 kts | 195° |
| 2026-05-05 06:06 | 58.27572 | 24.04123 | 37691 ft | 431 kts | 195° |
| 2026-05-05 06:06 | 58.24616 | 24.03122 | 37806 ft | 433 kts | 195° |
| 2026-05-05 06:06 | 58.18667 | 24.01114 | 37796 ft | 433 kts | 195° |
| 2026-05-05 06:07 | 58.12751 | 23.99128 | 37803 ft | 430 kts | 195° |
| 2026-05-05 06:07 | 58.06869 | 23.97156 | 37805 ft | 428 kts | 195° |
| 2026-05-05 06:08 | 58.01014 | 23.95195 | 37818 ft | 426 kts | 195° |
| 2026-05-05 06:08 | 57.95173 | 23.93252 | 37818 ft | 426 kts | 195° |
| 2026-05-05 06:09 | 57.89333 | 23.91313 | 37805 ft | 427 kts | 195° |
| 2026-05-05 06:09 | 57.83477 | 23.89347 | 37827 ft | 428 kts | 195° |
| 2026-05-05 06:10 | 57.77601 | 23.87372 | 37833 ft | 430 kts | 195° |
| 2026-05-05 06:10 | 57.71689 | 23.85397 | 37827 ft | 433 kts | 195° |
| 2026-05-05 06:11 | 57.65743 | 23.83457 | 37824 ft | 435 kts | 194° |
| 2026-05-05 06:11 | 57.59769 | 23.81531 | 37815 ft | 436 kts | 194° |
| 2026-05-05 06:12 | 57.53776 | 23.79600 | 37833 ft | 438 kts | 194° |
| 2026-05-05 06:12 | 57.47770 | 23.77667 | 37838 ft | 439 kts | 194° |
| 2026-05-05 06:13 | 57.41748 | 23.75735 | 37839 ft | 439 kts | 194° |
| 2026-05-05 06:13 | 57.35730 | 23.73796 | 37837 ft | 439 kts | 194° |
| 2026-05-05 06:14 | 57.29718 | 23.71861 | 37836 ft | 438 kts | 194° |
| 2026-05-05 06:14 | 57.23709 | 23.69932 | 37837 ft | 438 kts | 194° |
| 2026-05-05 06:15 | 57.17749 | 23.68027 | 37846 ft | 438 kts | 194° |
| 2026-05-05 06:15 | 57.11751 | 23.66116 | 37850 ft | 437 kts | 194° |
| 2026-05-05 06:16 | 57.05750 | 23.64211 | 37829 ft | 437 kts | 194° |
| 2026-05-05 06:16 | 56.99760 | 23.62315 | 37850 ft | 437 kts | 194° |
| 2026-05-05 06:17 | 56.93767 | 23.60424 | 37859 ft | 437 kts | 194° |
| 2026-05-05 06:17 | 56.87775 | 23.58540 | 37856 ft | 437 kts | 194° |
| 2026-05-05 06:18 | 56.81776 | 23.56660 | 37859 ft | 437 kts | 194° |
| 2026-05-05 06:18 | 56.75777 | 23.54786 | 37852 ft | 437 kts | 194° |
| 2026-05-05 06:19 | 56.69782 | 23.52920 | 37857 ft | 437 kts | 194° |
| 2026-05-05 06:19 | 56.63789 | 23.51060 | 37861 ft | 437 kts | 194° |
| 2026-05-05 06:20 | 56.57790 | 23.49203 | 37860 ft | 437 kts | 194° |
| 2026-05-05 06:20 | 56.51793 | 23.47354 | 37866 ft | 437 kts | 194° |
| 2026-05-05 06:21 | 56.45798 | 23.45510 | 37865 ft | 437 kts | 194° |
| 2026-05-05 06:21 | 56.39799 | 23.43671 | 37866 ft | 437 kts | 194° |
| 2026-05-05 06:22 | 56.33794 | 23.41891 | 37868 ft | 438 kts | 193° |
| 2026-05-05 06:22 | 56.27753 | 23.40427 | 37869 ft | 438 kts | 192° |
| 2026-05-05 06:23 | 56.21703 | 23.39030 | 37867 ft | 438 kts | 192° |
| 2026-05-05 06:23 | 56.15664 | 23.37609 | 37886 ft | 437 kts | 192° |
| 2026-05-05 06:24 | 56.09633 | 23.36168 | 37890 ft | 437 kts | 192° |
| 2026-05-05 06:24 | 56.04624 | 23.34969 | 37900 ft | 437 kts | 192° |
| 2026-05-05 06:25 | 55.98603 | 23.33529 | 37908 ft | 436 kts | 192° |
| 2026-05-05 06:25 | 55.92585 | 23.32096 | 37907 ft | 436 kts | 192° |
| 2026-05-05 06:26 | 55.86576 | 23.30670 | 37910 ft | 436 kts | 193° |
| 2026-05-05 06:26 | 55.80570 | 23.29249 | 37913 ft | 435 kts | 192° |
| 2026-05-05 06:27 | 55.71562 | 23.27126 | 37903 ft | 435 kts | 192° |
| 2026-05-05 06:28 | 55.65559 | 23.25717 | 37900 ft | 435 kts | 192° |
| 2026-05-05 06:28 | 55.59564 | 23.24314 | 37904 ft | 434 kts | 192° |
| 2026-05-05 06:29 | 55.53567 | 23.22915 | 37896 ft | 435 kts | 192° |
| 2026-05-05 06:29 | 55.47571 | 23.21520 | 37904 ft | 435 kts | 192° |
| 2026-05-05 06:30 | 55.41614 | 23.20139 | 37897 ft | 435 kts | 192° |
| 2026-05-05 06:30 | 55.35624 | 23.18754 | 37906 ft | 434 kts | 192° |
| 2026-05-05 06:31 | 55.29633 | 23.17374 | 37919 ft | 434 kts | 192° |
| 2026-05-05 06:31 | 55.23644 | 23.15998 | 37918 ft | 434 kts | 192° |
| 2026-05-05 06:32 | 55.17655 | 23.14626 | 37891 ft | 434 kts | 192° |
| 2026-05-05 06:32 | 55.11672 | 23.13260 | 37917 ft | 433 kts | 192° |
| 2026-05-05 06:33 | 55.05688 | 23.11897 | 37922 ft | 434 kts | 192° |
| 2026-05-05 06:33 | 54.99695 | 23.10536 | 37924 ft | 435 kts | 192° |
| 2026-05-05 06:34 | 54.93688 | 23.09176 | 37925 ft | 436 kts | 192° |
| 2026-05-05 06:34 | 54.87672 | 23.07818 | 37903 ft | 436 kts | 192° |
| 2026-05-05 06:35 | 54.81646 | 23.06463 | 37933 ft | 437 kts | 192° |
| 2026-05-05 06:35 | 54.75609 | 23.05109 | 37929 ft | 438 kts | 192° |
| 2026-05-05 06:36 | 54.69554 | 23.03755 | 37931 ft | 439 kts | 192° |
| 2026-05-05 06:36 | 54.63489 | 23.02403 | 37927 ft | 440 kts | 192° |
| 2026-05-05 06:37 | 54.57415 | 23.01053 | 37933 ft | 440 kts | 192° |
| 2026-05-05 06:37 | 54.51334 | 22.99706 | 37938 ft | 441 kts | 192° |
| 2026-05-05 06:38 | 54.45249 | 22.98361 | 37937 ft | 441 kts | 192° |
| 2026-05-05 06:38 | 54.39161 | 22.97020 | 37937 ft | 441 kts | 192° |
| 2026-05-05 06:39 | 54.33075 | 22.95684 | 37933 ft | 440 kts | 192° |
| 2026-05-05 06:39 | 54.27003 | 22.94355 | 37928 ft | 440 kts | 192° |
| 2026-05-05 06:40 | 54.20937 | 22.93030 | 37930 ft | 439 kts | 192° |
| 2026-05-05 06:40 | 54.14926 | 22.91720 | 37939 ft | 438 kts | 192° |
| 2026-05-05 06:41 | 54.08848 | 22.90345 | 37913 ft | 436 kts | 195° |
| 2026-05-05 06:41 | 54.03258 | 22.87026 | 37937 ft | 425 kts | 210° |
| 2026-05-05 06:42 | 53.97985 | 22.82481 | 37928 ft | 425 kts | 211° |
| 2026-05-05 06:42 | 53.92711 | 22.77943 | 37931 ft | 425 kts | 210° |
| 2026-05-05 06:43 | 53.87424 | 22.73452 | 37932 ft | 425 kts | 210° |
| 2026-05-05 06:43 | 53.82125 | 22.68991 | 37939 ft | 425 kts | 210° |
| 2026-05-05 06:44 | 53.76824 | 22.64548 | 37934 ft | 426 kts | 210° |
| 2026-05-05 06:44 | 53.71513 | 22.60110 | 37930 ft | 426 kts | 210° |
| 2026-05-05 06:45 | 53.66197 | 22.55680 | 37932 ft | 426 kts | 210° |
| 2026-05-05 06:45 | 53.60880 | 22.51262 | 37923 ft | 426 kts | 210° |
| 2026-05-05 06:46 | 53.55557 | 22.46851 | 37932 ft | 426 kts | 210° |
| 2026-05-05 06:46 | 53.50271 | 22.42482 | 37927 ft | 426 kts | 210° |
| 2026-05-05 06:47 | 53.44946 | 22.38094 | 37926 ft | 427 kts | 210° |
| 2026-05-05 06:47 | 53.39614 | 22.33712 | 37910 ft | 427 kts | 210° |
| 2026-05-05 06:48 | 53.34284 | 22.29344 | 37925 ft | 427 kts | 210° |
| 2026-05-05 06:48 | 53.28949 | 22.24984 | 37921 ft | 427 kts | 210° |
| 2026-05-05 06:49 | 53.23617 | 22.20639 | 37924 ft | 427 kts | 209° |
| 2026-05-05 06:49 | 53.18278 | 22.16301 | 37922 ft | 427 kts | 209° |
| 2026-05-05 06:50 | 53.12940 | 22.11975 | 37911 ft | 427 kts | 209° |
| 2026-05-05 06:50 | 53.07606 | 22.07664 | 37922 ft | 426 kts | 209° |
| 2026-05-05 06:51 | 53.02267 | 22.03361 | 37916 ft | 426 kts | 209° |
| 2026-05-05 06:51 | 52.96926 | 21.99069 | 37912 ft | 427 kts | 209° |
| 2026-05-05 06:52 | 52.91582 | 21.94786 | 37903 ft | 426 kts | 209° |
| 2026-05-05 06:52 | 52.86243 | 21.90519 | 37913 ft | 426 kts | 209° |
| 2026-05-05 06:53 | 52.80900 | 21.86260 | 37907 ft | 426 kts | 209° |
| 2026-05-05 06:53 | 52.75550 | 21.82007 | 37903 ft | 427 kts | 209° |
| 2026-05-05 06:54 | 52.70199 | 21.77766 | 37895 ft | 427 kts | 208° |
| 2026-05-05 06:54 | 52.64882 | 21.73562 | 37905 ft | 427 kts | 208° |
| 2026-05-05 06:55 | 52.59527 | 21.69340 | 37904 ft | 427 kts | 208° |
| 2026-05-05 06:55 | 52.54161 | 21.65121 | 37898 ft | 428 kts | 208° |
| 2026-05-05 06:56 | 52.48794 | 21.60912 | 37885 ft | 428 kts | 208° |
| 2026-05-05 06:56 | 52.43417 | 21.56708 | 37901 ft | 428 kts | 208° |
| 2026-05-05 06:57 | 52.38038 | 21.52513 | 37897 ft | 429 kts | 208° |
| 2026-05-05 06:57 | 52.32656 | 21.48327 | 37893 ft | 428 kts | 208° |
| 2026-05-05 06:58 | 52.27282 | 21.44159 | 37875 ft | 428 kts | 208° |
| 2026-05-05 06:58 | 52.21911 | 21.40005 | 37892 ft | 427 kts | 208° |
| 2026-05-05 06:59 | 52.16537 | 21.35858 | 37899 ft | 427 kts | 208° |
| 2026-05-05 06:59 | 52.11163 | 21.31723 | 37905 ft | 428 kts | 208° |
| 2026-05-05 07:00 | 52.05780 | 21.27593 | 37906 ft | 428 kts | 208° |
| 2026-05-05 07:00 | 52.00394 | 21.23470 | 37901 ft | 428 kts | 207° |
| 2026-05-05 07:01 | 51.94998 | 21.19352 | 37902 ft | 429 kts | 207° |
| 2026-05-05 07:01 | 51.89595 | 21.15239 | 37901 ft | 429 kts | 207° |
| 2026-05-05 07:02 | 51.84181 | 21.11129 | 37897 ft | 430 kts | 207° |
| 2026-05-05 07:02 | 51.78763 | 21.07026 | 37887 ft | 430 kts | 207° |
| 2026-05-05 07:03 | 51.73343 | 21.02933 | 37902 ft | 430 kts | 207° |
| 2026-05-05 07:03 | 51.67914 | 20.98844 | 37904 ft | 431 kts | 207° |
| 2026-05-05 07:04 | 51.62484 | 20.94765 | 37910 ft | 431 kts | 207° |
| 2026-05-05 07:04 | 51.57086 | 20.90721 | 37916 ft | 431 kts | 207° |
| 2026-05-05 07:05 | 51.51651 | 20.86660 | 37912 ft | 431 kts | 207° |
| 2026-05-05 07:05 | 51.46218 | 20.82610 | 37918 ft | 430 kts | 207° |
| 2026-05-05 07:06 | 51.40788 | 20.78574 | 37914 ft | 430 kts | 207° |
| 2026-05-05 07:06 | 51.35357 | 20.74546 | 37909 ft | 430 kts | 207° |
| 2026-05-05 07:07 | 51.29929 | 20.70531 | 37908 ft | 430 kts | 207° |
| 2026-05-05 07:07 | 51.24470 | 20.66620 | 37913 ft | 430 kts | 205° |
| 2026-05-05 07:08 | 51.18961 | 20.62873 | 37917 ft | 431 kts | 205° |
| 2026-05-05 07:08 | 51.13448 | 20.59133 | 37908 ft | 431 kts | 205° |
| 2026-05-05 07:09 | 51.07934 | 20.55379 | 37919 ft | 431 kts | 205° |
| 2026-05-05 07:09 | 51.02414 | 20.51618 | 37922 ft | 432 kts | 205° |
| 2026-05-05 07:10 | 50.96894 | 20.47866 | 37921 ft | 432 kts | 205° |
| 2026-05-05 07:10 | 50.91362 | 20.44116 | 37920 ft | 432 kts | 205° |
| 2026-05-05 07:11 | 50.85835 | 20.40379 | 37924 ft | 432 kts | 205° |
| 2026-05-05 07:11 | 50.80304 | 20.36649 | 37921 ft | 432 kts | 205° |
| 2026-05-05 07:12 | 50.74770 | 20.32926 | 37927 ft | 432 kts | 205° |
| 2026-05-05 07:12 | 50.69231 | 20.29209 | 37920 ft | 432 kts | 205° |
| 2026-05-05 07:13 | 50.63694 | 20.25503 | 37927 ft | 432 kts | 205° |
| 2026-05-05 07:13 | 50.58193 | 20.21842 | 37926 ft | 432 kts | 204° |
| 2026-05-05 07:14 | 50.52486 | 20.18797 | 37933 ft | 434 kts | 200° |
| 2026-05-05 07:14 | 50.46710 | 20.16019 | 37923 ft | 434 kts | 199° |
| 2026-05-05 07:15 | 50.41880 | 20.13666 | 37931 ft | 434 kts | 200° |
| 2026-05-05 07:15 | 50.36160 | 20.10832 | 37932 ft | 434 kts | 200° |
| 2026-05-05 07:16 | 50.30406 | 20.07969 | 37937 ft | 434 kts | 200° |
| 2026-05-05 07:16 | 50.24649 | 20.05110 | 37929 ft | 434 kts | 200° |
| 2026-05-05 07:17 | 50.18888 | 20.02259 | 37942 ft | 434 kts | 200° |
| 2026-05-05 07:17 | 50.13126 | 19.99414 | 37941 ft | 435 kts | 200° |
| 2026-05-05 07:18 | 50.07357 | 19.96574 | 37942 ft | 435 kts | 200° |
| 2026-05-05 07:18 | 50.01588 | 19.93734 | 37942 ft | 435 kts | 200° |
| 2026-05-05 07:19 | 49.95820 | 19.90895 | 37940 ft | 435 kts | 200° |
| 2026-05-05 07:19 | 49.90050 | 19.88073 | 37945 ft | 435 kts | 200° |
| 2026-05-05 07:20 | 49.84274 | 19.85266 | 37936 ft | 435 kts | 200° |
| 2026-05-05 07:20 | 49.78496 | 19.82463 | 37928 ft | 435 kts | 199° |
| 2026-05-05 07:21 | 49.72501 | 19.81015 | 37948 ft | 440 kts | 183° |
| 2026-05-05 07:21 | 49.66365 | 19.80928 | 37953 ft | 442 kts | 183° |
| 2026-05-05 07:22 | 49.60202 | 19.80832 | 37951 ft | 443 kts | 183° |
| 2026-05-05 07:22 | 49.54043 | 19.80675 | 37959 ft | 444 kts | 184° |
| 2026-05-05 07:23 | 49.47853 | 19.80497 | 37954 ft | 445 kts | 184° |
| 2026-05-05 07:23 | 49.41685 | 19.80320 | 37961 ft | 442 kts | 184° |
| 2026-05-05 07:24 | 49.35574 | 19.80146 | 37980 ft | 443 kts | 184° |
| 2026-05-05 07:24 | 49.29385 | 19.79971 | 37989 ft | 446 kts | 184° |
| 2026-05-05 07:25 | 49.23161 | 19.79795 | 37986 ft | 448 kts | 184° |
| 2026-05-05 07:25 | 49.16914 | 19.79620 | 37990 ft | 450 kts | 184° |
| 2026-05-05 07:25 | 49.13781 | 19.79532 | 37714 ft | 454 kts | 184° |
| 2026-05-05 07:26 | 49.10622 | 19.79470 | 37215 ft | 452 kts | 184° |
| 2026-05-05 07:26 | 49.07485 | 19.79407 | 36638 ft | 448 kts | 184° |
| 2026-05-05 07:26 | 49.04386 | 19.79338 | 36048 ft | 443 kts | 184° |
| 2026-05-05 07:26 | 49.01313 | 19.79265 | 35417 ft | 440 kts | 183° |
| 2026-05-05 07:27 | 48.98259 | 19.79186 | 34779 ft | 437 kts | 183° |
| 2026-05-05 07:27 | 48.95239 | 19.79106 | 34387 ft | 428 kts | 183° |
| 2026-05-05 07:27 | 48.92279 | 19.79023 | 34092 ft | 429 kts | 183° |
| 2026-05-05 07:27 | 48.89225 | 19.78928 | 33377 ft | 448 kts | 183° |
| 2026-05-05 07:28 | 48.86079 | 19.78817 | 32741 ft | 451 kts | 184° |
| 2026-05-05 07:28 | 48.82985 | 19.78709 | 32292 ft | 440 kts | 183° |
| 2026-05-05 07:28 | 48.79949 | 19.78595 | 31787 ft | 432 kts | 184° |
| 2026-05-05 07:28 | 48.76970 | 19.78479 | 31318 ft | 425 kts | 183° |
| 2026-05-05 07:29 | 48.74041 | 19.78358 | 30847 ft | 418 kts | 183° |
| 2026-05-05 07:29 | 48.71156 | 19.78247 | 30398 ft | 412 kts | 181° |
| 2026-05-05 07:29 | 48.68321 | 19.78629 | 29887 ft | 407 kts | 172° |
| 2026-05-05 07:29 | 48.65547 | 19.79297 | 29445 ft | 402 kts | 174° |
| 2026-05-05 07:30 | 48.62761 | 19.79849 | 28986 ft | 408 kts | 176° |
| 2026-05-05 07:30 | 48.56995 | 19.80430 | 27994 ft | 413 kts | 180° |
| 2026-05-05 07:30 | 48.54158 | 19.80531 | 27529 ft | 403 kts | 182° |
| 2026-05-05 07:31 | 48.51384 | 19.80576 | 27063 ft | 395 kts | 181° |
| 2026-05-05 07:31 | 48.48658 | 19.80594 | 26604 ft | 388 kts | 181° |
| 2026-05-05 07:31 | 48.45977 | 19.80600 | 26136 ft | 382 kts | 181° |
| 2026-05-05 07:31 | 48.43329 | 19.80610 | 25693 ft | 378 kts | 181° |
| 2026-05-05 07:32 | 48.40718 | 19.80626 | 25253 ft | 374 kts | 181° |
| 2026-05-05 07:32 | 48.38105 | 19.80643 | 24832 ft | 380 kts | 181° |
| 2026-05-05 07:32 | 48.35447 | 19.80661 | 24394 ft | 393 kts | 181° |
| 2026-05-05 07:32 | 48.32707 | 19.80682 | 23910 ft | 391 kts | 181° |
| 2026-05-05 07:33 | 48.30008 | 19.80705 | 23413 ft | 385 kts | 181° |
| 2026-05-05 07:33 | 48.27354 | 19.80727 | 22895 ft | 378 kts | 181° |
| 2026-05-05 07:33 | 48.24750 | 19.80749 | 22426 ft | 371 kts | 181° |
| 2026-05-05 07:33 | 48.22197 | 19.80768 | 21993 ft | 363 kts | 181° |
| 2026-05-05 07:34 | 48.19698 | 19.80788 | 21541 ft | 356 kts | 181° |
| 2026-05-05 07:34 | 48.17243 | 19.80768 | 21131 ft | 349 kts | 185° |
| 2026-05-05 07:34 | 48.14850 | 19.80352 | 20725 ft | 344 kts | 190° |
| 2026-05-05 07:34 | 48.12497 | 19.79780 | 20312 ft | 342 kts | 191° |
| 2026-05-05 07:35 | 48.10132 | 19.79179 | 19902 ft | 349 kts | 191° |
| 2026-05-05 07:35 | 48.07695 | 19.78567 | 19478 ft | 359 kts | 190° |
| 2026-05-05 07:35 | 48.05246 | 19.77968 | 19029 ft | 354 kts | 190° |
| 2026-05-05 07:35 | 48.02830 | 19.77391 | 18592 ft | 348 kts | 190° |
| 2026-05-05 07:36 | 48.00462 | 19.76832 | 18135 ft | 342 kts | 189° |
| 2026-05-05 07:36 | 47.98130 | 19.76287 | 17663 ft | 336 kts | 189° |
| 2026-05-05 07:36 | 47.95851 | 19.75755 | 17230 ft | 330 kts | 189° |
| 2026-05-05 07:36 | 47.93603 | 19.75232 | 16815 ft | 324 kts | 189° |
| 2026-05-05 07:37 | 47.91394 | 19.74717 | 16403 ft | 320 kts | 189° |
| 2026-05-05 07:37 | 47.89202 | 19.74208 | 16011 ft | 318 kts | 189° |
| 2026-05-05 07:37 | 47.87014 | 19.73700 | 15622 ft | 320 kts | 189° |
| 2026-05-05 07:37 | 47.84797 | 19.73068 | 15228 ft | 328 kts | 197° |
| 2026-05-05 07:38 | 47.82704 | 19.71721 | 14790 ft | 327 kts | 210° |
| 2026-05-05 07:38 | 47.80876 | 19.69779 | 14387 ft | 321 kts | 220° |
| 2026-05-05 07:38 | 47.79249 | 19.67546 | 13993 ft | 315 kts | 222° |
| 2026-05-05 07:38 | 47.77670 | 19.65329 | 13557 ft | 310 kts | 222° |
| 2026-05-05 07:39 | 47.76114 | 19.63153 | 13135 ft | 304 kts | 222° |
| 2026-05-05 07:39 | 47.74578 | 19.61022 | 12706 ft | 300 kts | 221° |
| 2026-05-05 07:39 | 47.73052 | 19.58922 | 12333 ft | 299 kts | 221° |
| 2026-05-05 07:39 | 47.71521 | 19.56826 | 11963 ft | 300 kts | 221° |
| 2026-05-05 07:40 | 47.69986 | 19.54728 | 11589 ft | 309 kts | 221° |
| 2026-05-05 07:40 | 47.68391 | 19.52550 | 11179 ft | 313 kts | 221° |
| 2026-05-05 07:40 | 47.66779 | 19.50350 | 10762 ft | 308 kts | 221° |
| 2026-05-05 07:40 | 47.65231 | 19.48236 | 10561 ft | 295 kts | 221° |
| 2026-05-05 07:41 | 47.63752 | 19.46219 | 10412 ft | 282 kts | 221° |
| 2026-05-05 07:41 | 47.62338 | 19.44293 | 10269 ft | 270 kts | 220° |
| 2026-05-05 07:41 | 47.60987 | 19.42455 | 10167 ft | 258 kts | 220° |
| 2026-05-05 07:41 | 47.59684 | 19.40684 | 10061 ft | 252 kts | 220° |
| 2026-05-05 07:42 | 47.58408 | 19.38950 | 9820 ft | 254 kts | 220° |
| 2026-05-05 07:42 | 47.57092 | 19.37167 | 9531 ft | 259 kts | 220° |
| 2026-05-05 07:42 | 47.55757 | 19.35357 | 9243 ft | 259 kts | 221° |
| 2026-05-05 07:42 | 47.54657 | 19.33336 | 9106 ft | 251 kts | 244° |
| 2026-05-05 07:43 | 47.54312 | 19.30887 | 9014 ft | 240 kts | 266° |
| 2026-05-05 07:43 | 47.54595 | 19.28474 | 8750 ft | 237 kts | 285° |
| 2026-05-05 07:43 | 47.55402 | 19.26381 | 8503 ft | 234 kts | 304° |
| 2026-05-05 07:43 | 47.56463 | 19.24609 | 8290 ft | 226 kts | 308° |
| 2026-05-05 07:44 | 47.57516 | 19.22931 | 8065 ft | 219 kts | 308° |
| 2026-05-05 07:44 | 47.58542 | 19.21292 | 7859 ft | 215 kts | 308° |
| 2026-05-05 07:44 | 47.59555 | 19.19667 | 7669 ft | 215 kts | 308° |
| 2026-05-05 07:44 | 47.60571 | 19.18029 | 7455 ft | 216 kts | 307° |
| 2026-05-05 07:45 | 47.61583 | 19.16386 | 7255 ft | 216 kts | 306° |
| 2026-05-05 07:45 | 47.62595 | 19.14743 | 7039 ft | 216 kts | 306° |
| 2026-05-05 07:45 | 47.63609 | 19.13094 | 6832 ft | 216 kts | 306° |
| 2026-05-05 07:45 | 47.64625 | 19.11442 | 6621 ft | 217 kts | 306° |
| 2026-05-05 07:46 | 47.65642 | 19.09785 | 6407 ft | 218 kts | 306° |
| 2026-05-05 07:46 | 47.66661 | 19.08123 | 6179 ft | 217 kts | 306° |
| 2026-05-05 07:46 | 47.67674 | 19.06459 | 5937 ft | 217 kts | 303° |
| 2026-05-05 07:46 | 47.68251 | 19.04506 | 5685 ft | 197 kts | 265° |
| 2026-05-05 07:47 | 47.67959 | 19.02634 | 5539 ft | 181 kts | 236° |
| 2026-05-05 07:47 | 47.67181 | 19.01226 | 5474 ft | 177 kts | 215° |
| 2026-05-05 07:47 | 47.66093 | 19.00377 | 5393 ft | 179 kts | 200° |
| 2026-05-05 07:47 | 47.64926 | 18.99673 | 5335 ft | 183 kts | 201° |
| 2026-05-05 07:48 | 47.63744 | 18.98953 | 5179 ft | 186 kts | 201° |
| 2026-05-05 07:48 | 47.62558 | 18.98235 | 4956 ft | 180 kts | 201° |
| 2026-05-05 07:48 | 47.61410 | 18.97578 | 4784 ft | 175 kts | 193° |
| 2026-05-05 07:48 | 47.60247 | 18.97777 | 4594 ft | 168 kts | 161° |
| 2026-05-05 07:49 | 47.59278 | 18.98699 | 4394 ft | 169 kts | 140° |
| 2026-05-05 07:49 | 47.58500 | 18.99976 | 4274 ft | 164 kts | 139° |
| 2026-05-05 07:49 | 47.57738 | 19.01218 | 4111 ft | 162 kts | 140° |
| 2026-05-05 07:49 | 47.57012 | 19.02397 | 3936 ft | 152 kts | 140° |
| 2026-05-05 07:50 | 47.56300 | 19.03554 | 3738 ft | 151 kts | 140° |
| 2026-05-05 07:50 | 47.55593 | 19.04701 | 3550 ft | 151 kts | 140° |
| 2026-05-05 07:50 | 47.54887 | 19.05850 | 3359 ft | 149 kts | 140° |
| 2026-05-05 07:50 | 47.54190 | 19.06977 | 3160 ft | 150 kts | 140° |
| 2026-05-05 07:51 | 47.53482 | 19.08120 | 2947 ft | 152 kts | 140° |
| 2026-05-05 07:51 | 47.52770 | 19.09271 | 2743 ft | 151 kts | 140° |
| 2026-05-05 07:51 | 47.52067 | 19.10411 | 2547 ft | 150 kts | 140° |
| 2026-05-05 07:51 | 47.51361 | 19.11554 | 2365 ft | 150 kts | 139° |
| 2026-05-05 07:52 | 47.50659 | 19.12689 | 2158 ft | 149 kts | 138° |
| 2026-05-05 07:52 | 47.49961 | 19.13820 | 1948 ft | 149 kts | 138° |
| 2026-05-05 07:52 | 47.49271 | 19.14942 | 1752 ft | 145 kts | 138° |
| 2026-05-05 07:52 | 47.48587 | 19.16048 | 1573 ft | 148 kts | 137° |
| 2026-05-05 07:53 | 47.47881 | 19.17192 | 1364 ft | 153 kts | 136° |
| 2026-05-05 07:53 | 47.47157 | 19.18364 | 1169 ft | 156 kts | 135° |
| 2026-05-05 07:53 | 47.46423 | 19.19559 | 949 ft | 156 kts | 136° |
| 2026-05-05 07:53 | 47.45703 | 19.20727 | 734 ft | 153 kts | 137° |
| 2026-05-05 07:54 | 47.44984 | 19.21869 | 529 ft | 150 kts | 137° |
| 2026-05-05 07:54 | 47.44357 | 19.22889 | 490 ft | 108 kts | 132° |
| 2026-05-05 07:54 | 47.43996 | 19.23478 | 485 ft | 47 kts | 133° |
| 2026-05-05 07:54 | 47.43887 | 19.23661 | 485 ft | 15 kts | 130° |
| 2026-05-05 07:55 | 47.43844 | 19.23788 | 487 ft | 11 kts | 79° |
| 2026-05-05 07:55 | 47.43876 | 19.23858 | 487 ft | 8 kts | 43° |
| 2026-05-05 07:55 | 47.43908 | 19.23923 | 484 ft | 8 kts | 65° |
| 2026-05-05 07:55 | 47.43911 | 19.24010 | 482 ft | 9 kts | 106° |
| 2026-05-05 07:56 | 47.43883 | 19.24074 | 485 ft | 6 kts | 130° |
| 2026-05-05 07:56 | 47.43862 | 19.24108 | 483 ft | 1 kts | 132° |
| 2026-05-05 07:56 | 47.43861 | 19.24110 | 478 ft | 0 kts | 132° |
| 2026-05-05 07:56 | 47.43860 | 19.24111 | 483 ft | 0 kts | 132° |
| 2026-05-05 07:57 | 47.43859 | 19.24112 | 483 ft | 1 kts | 132° |
| 2026-05-05 07:57 | 47.43855 | 19.24119 | 483 ft | 1 kts | 133° |
| 2026-05-05 07:57 | 47.43846 | 19.24134 | 482 ft | 3 kts | 133° |
| 2026-05-05 07:57 | 47.43823 | 19.24171 | 482 ft | 7 kts | 129° |
| 2026-05-05 07:58 | 47.43776 | 19.24249 | 475 ft | 12 kts | 133° |
| 2026-05-05 07:58 | 47.43715 | 19.24345 | 482 ft | 13 kts | 133° |
| 2026-05-05 07:58 | 47.43656 | 19.24441 | 472 ft | 13 kts | 132° |
| 2026-05-05 07:58 | 47.43595 | 19.24540 | 479 ft | 13 kts | 132° |
| 2026-05-05 07:59 | 47.43536 | 19.24636 | 481 ft | 13 kts | 133° |
| 2026-05-05 07:59 | 47.43475 | 19.24734 | 480 ft | 14 kts | 132° |
| 2026-05-05 07:59 | 47.43411 | 19.24838 | 479 ft | 13 kts | 133° |
| 2026-05-05 07:59 | 47.43349 | 19.24938 | 485 ft | 14 kts | 132° |
| 2026-05-05 08:00 | 47.43308 | 19.25072 | 484 ft | 16 kts | 88° |
| 2026-05-05 08:00 | 47.43374 | 19.25214 | 483 ft | 18 kts | 43° |
| 2026-05-05 08:00 | 47.43382 | 19.25372 | 482 ft | 18 kts | 116° |
| 2026-05-05 08:00 | 47.43441 | 19.25516 | 479 ft | 17 kts | 42° |
| 2026-05-05 08:01 | 47.43527 | 19.25638 | 480 ft | 16 kts | 57° |
| 2026-05-05 08:01 | 47.43479 | 19.25771 | 479 ft | 16 kts | 113° |
| 2026-05-05 08:01 | 47.43538 | 19.25890 | 480 ft | 15 kts | 42° |
| 2026-05-05 08:01 | 47.43605 | 19.25983 | 481 ft | 12 kts | 44° |
| 2026-05-05 08:02 | 47.43653 | 19.26011 | 484 ft | 5 kts | 320° |
| 2026-05-05 08:02 | 47.43655 | 19.25978 | 484 ft | 0 kts | 211° |